sensor_id;sensor_type;location;lat;lon;timestamp;pressure;altitude;pressure_sealevel;temperature;humidity
43153;BME280;28756;49.064;9.290;2023-04-01T00:01:00;97675.56;;;7.88;100.00
43153;BME280;28756;49.064;9.290;2023-04-01T00:03:28;97666.16;;;7.87;100.00
43153;BME280;28756;49.064;9.290;2023-04-01T00:05:55;97670.59;;;7.85;100.00
43153;BME280;28756;49.064;9.290;2023-04-01T00:08:21;97671.41;;;7.85;100.00
43153;BME280;28756;49.064;9.290;2023-04-01T00:10:47;97664.78;;;7.81;100.00
43153;BME280;28756;49.064;9.290;2023-04-01T00:13:13;97671.94;;;7.78;100.00
43153;BME280;28756;49.064;9.290;2023-04-01T00:15:40;97660.53;;;7.80;100.00
43153;BME280;28756;49.064;9.290;2023-04-01T00:18:06;97658.78;;;7.81;100.00
43153;BME280;28756;49.064;9.290;2023-04-01T00:20:32;97671.00;;;7.79;100.00
43153;BME280;28756;49.064;9.290;2023-04-01T00:22:58;97668.59;;;7.75;100.00
43153;BME280;28756;49.064;9.290;2023-04-01T00:25:24;97666.00;;;7.75;100.00
43153;BME280;28756;49.064;9.290;2023-04-01T00:27:50;97667.16;;;7.71;100.00
43153;BME280;28756;49.064;9.290;2023-04-01T00:30:16;97660.31;;;7.70;100.00
43153;BME280;28756;49.064;9.290;2023-04-01T00:32:43;97668.81;;;7.72;100.00
43153;BME280;28756;49.064;9.290;2023-04-01T00:35:09;97682.06;;;7.68;100.00
43153;BME280;28756;49.064;9.290;2023-04-01T00:37:37;97681.13;;;7.69;100.00
43153;BME280;28756;49.064;9.290;2023-04-01T00:40:05;97677.84;;;7.80;100.00
43153;BME280;28756;49.064;9.290;2023-04-01T00:42:32;97678.88;;;7.77;100.00
43153;BME280;28756;49.064;9.290;2023-04-01T00:44:58;97682.97;;;7.67;100.00
43153;BME280;28756;49.064;9.290;2023-04-01T00:47:25;97679.56;;;7.66;100.00
43153;BME280;28756;49.064;9.290;2023-04-01T00:49:54;97669.22;;;7.79;100.00
43153;BME280;28756;49.064;9.290;2023-04-01T00:52:23;97679.25;;;7.71;100.00
43153;BME280;28756;49.064;9.290;2023-04-01T00:54:56;97677.25;;;7.62;100.00
43153;BME280;28756;49.064;9.290;2023-04-01T00:57:31;97676.84;;;7.55;100.00
43153;BME280;28756;49.064;9.290;2023-04-01T00:59:59;97667.31;;;7.55;100.00
43153;BME280;28756;49.064;9.290;2023-04-01T01:02:25;97668.06;;;7.57;100.00
43153;BME280;28756;49.064;9.290;2023-04-01T01:04:51;97663.22;;;7.66;100.00
43153;BME280;28756;49.064;9.290;2023-04-01T01:10:19;97664.75;;;7.68;100.00
43153;BME280;28756;49.064;9.290;2023-04-01T01:18:32;97661.34;;;7.68;100.00
43153;BME280;28756;49.064;9.290;2023-04-01T01:27:13;97666.44;;;7.69;100.00
43153;BME280;28756;49.064;9.290;2023-04-01T01:35:35;97660.34;;;8.22;100.00
43153;BME280;28756;49.064;9.290;2023-04-01T01:38:08;97658.81;;;8.32;100.00
43153;BME280;28756;49.064;9.290;2023-04-01T01:40:37;97654.66;;;8.30;100.00
43153;BME280;28756;49.064;9.290;2023-04-01T01:43:08;97653.72;;;8.44;100.00
43153;BME280;28756;49.064;9.290;2023-04-01T01:45:39;97647.31;;;8.49;100.00
43153;BME280;28756;49.064;9.290;2023-04-01T01:48:07;97649.19;;;8.47;100.00
43153;BME280;28756;49.064;9.290;2023-04-01T01:50:34;97643.69;;;8.39;100.00
43153;BME280;28756;49.064;9.290;2023-04-01T01:53:05;97655.91;;;8.37;100.00
43153;BME280;28756;49.064;9.290;2023-04-01T01:55:35;97650.59;;;8.38;100.00
43153;BME280;28756;49.064;9.290;2023-04-01T01:58:29;97645.31;;;8.53;100.00
43153;BME280;28756;49.064;9.290;2023-04-01T02:01:03;97639.94;;;8.56;100.00
43153;BME280;28756;49.064;9.290;2023-04-01T02:03:35;97643.28;;;8.58;100.00
43153;BME280;28756;49.064;9.290;2023-04-01T02:06:05;97630.66;;;8.78;100.00
43153;BME280;28756;49.064;9.290;2023-04-01T02:08:48;97632.59;;;8.63;100.00
43153;BME280;28756;49.064;9.290;2023-04-01T02:11:18;97640.69;;;8.58;100.00
43153;BME280;28756;49.064;9.290;2023-04-01T02:13:54;97623.16;;;8.62;100.00
43153;BME280;28756;49.064;9.290;2023-04-01T02:16:34;97633.72;;;8.59;100.00
43153;BME280;28756;49.064;9.290;2023-04-01T02:19:05;97627.00;;;8.56;100.00
43153;BME280;28756;49.064;9.290;2023-04-01T02:21:35;97639.22;;;8.54;100.00
43153;BME280;28756;49.064;9.290;2023-04-01T02:24:08;97621.31;;;8.51;100.00
43153;BME280;28756;49.064;9.290;2023-04-01T02:26:35;97641.78;;;8.67;100.00
43153;BME280;28756;49.064;9.290;2023-04-01T02:29:02;97644.66;;;8.75;100.00
43153;BME280;28756;49.064;9.290;2023-04-01T02:31:31;97639.59;;;8.74;100.00
43153;BME280;28756;49.064;9.290;2023-04-01T02:33:57;97649.44;;;8.68;100.00
43153;BME280;28756;49.064;9.290;2023-04-01T02:36:24;97653.00;;;8.67;100.00
43153;BME280;28756;49.064;9.290;2023-04-01T02:38:50;97647.28;;;8.62;100.00
43153;BME280;28756;49.064;9.290;2023-04-01T02:41:17;97650.50;;;8.66;100.00
43153;BME280;28756;49.064;9.290;2023-04-01T02:43:43;97648.84;;;8.65;100.00
43153;BME280;28756;49.064;9.290;2023-04-01T02:46:08;97649.91;;;8.49;100.00
43153;BME280;28756;49.064;9.290;2023-04-01T02:48:34;97652.41;;;8.51;100.00
43153;BME280;28756;49.064;9.290;2023-04-01T02:51:00;97651.13;;;8.44;100.00
43153;BME280;28756;49.064;9.290;2023-04-01T02:53:26;97642.03;;;8.38;100.00
43153;BME280;28756;49.064;9.290;2023-04-01T02:55:52;97654.06;;;8.26;100.00
43153;BME280;28756;49.064;9.290;2023-04-01T02:58:18;97661.19;;;8.22;100.00
43153;BME280;28756;49.064;9.290;2023-04-01T03:00:44;97645.22;;;8.29;100.00
43153;BME280;28756;49.064;9.290;2023-04-01T03:03:10;97635.19;;;8.37;100.00
43153;BME280;28756;49.064;9.290;2023-04-01T03:05:36;97635.38;;;8.34;100.00
43153;BME280;28756;49.064;9.290;2023-04-01T03:08:02;97632.59;;;8.24;100.00
43153;BME280;28756;49.064;9.290;2023-04-01T03:10:28;97632.16;;;8.43;100.00
43153;BME280;28756;49.064;9.290;2023-04-01T03:12:54;97629.69;;;8.42;100.00
43153;BME280;28756;49.064;9.290;2023-04-01T03:15:19;97633.31;;;8.39;100.00
43153;BME280;28756;49.064;9.290;2023-04-01T03:17:45;97633.22;;;8.28;100.00
43153;BME280;28756;49.064;9.290;2023-04-01T03:20:12;97639.00;;;8.31;100.00
43153;BME280;28756;49.064;9.290;2023-04-01T03:22:38;97641.28;;;8.23;100.00
43153;BME280;28756;49.064;9.290;2023-04-01T03:25:06;97648.34;;;8.21;100.00
43153;BME280;28756;49.064;9.290;2023-04-01T03:27:33;97648.13;;;8.24;100.00
43153;BME280;28756;49.064;9.290;2023-04-01T03:30:01;97639.84;;;8.32;100.00
43153;BME280;28756;49.064;9.290;2023-04-01T03:32:27;97641.91;;;8.27;100.00
43153;BME280;28756;49.064;9.290;2023-04-01T03:34:53;97654.03;;;8.39;100.00
43153;BME280;28756;49.064;9.290;2023-04-01T03:37:19;97647.69;;;8.43;100.00
43153;BME280;28756;49.064;9.290;2023-04-01T03:39:44;97654.88;;;8.27;100.00
43153;BME280;28756;49.064;9.290;2023-04-01T03:42:11;97651.88;;;8.07;100.00
43153;BME280;28756;49.064;9.290;2023-04-01T03:44:37;97662.22;;;8.07;100.00
43153;BME280;28756;49.064;9.290;2023-04-01T03:47:03;97645.66;;;8.22;100.00
43153;BME280;28756;49.064;9.290;2023-04-01T03:49:29;97649.69;;;8.27;100.00
43153;BME280;28756;49.064;9.290;2023-04-01T03:51:55;97658.28;;;8.14;100.00
43153;BME280;28756;49.064;9.290;2023-04-01T03:54:21;97651.66;;;8.10;100.00
43153;BME280;28756;49.064;9.290;2023-04-01T03:56:47;97652.78;;;7.93;100.00
43153;BME280;28756;49.064;9.290;2023-04-01T03:59:13;97660.97;;;7.87;100.00
43153;BME280;28756;49.064;9.290;2023-04-01T04:01:39;97659.13;;;7.89;100.00
43153;BME280;28756;49.064;9.290;2023-04-01T04:04:05;97657.47;;;7.88;100.00
43153;BME280;28756;49.064;9.290;2023-04-01T04:06:32;97653.28;;;7.85;100.00
43153;BME280;28756;49.064;9.290;2023-04-01T04:08:58;97653.00;;;7.77;100.00
43153;BME280;28756;49.064;9.290;2023-04-01T04:11:23;97654.56;;;7.80;100.00
43153;BME280;28756;49.064;9.290;2023-04-01T04:13:49;97651.34;;;7.76;100.00
43153;BME280;28756;49.064;9.290;2023-04-01T04:16:16;97653.59;;;7.68;100.00
43153;BME280;28756;49.064;9.290;2023-04-01T04:18:42;97644.59;;;7.61;100.00
43153;BME280;28756;49.064;9.290;2023-04-01T04:21:14;97646.31;;;7.60;100.00
43153;BME280;28756;49.064;9.290;2023-04-01T04:23:41;97647.06;;;7.62;100.00
43153;BME280;28756;49.064;9.290;2023-04-01T04:26:11;97653.78;;;7.65;100.00
43153;BME280;28756;49.064;9.290;2023-04-01T04:28:37;97656.16;;;7.55;100.00
43153;BME280;28756;49.064;9.290;2023-04-01T04:31:03;97649.13;;;7.57;100.00
43153;BME280;28756;49.064;9.290;2023-04-01T04:33:30;97653.56;;;7.55;100.00
43153;BME280;28756;49.064;9.290;2023-04-01T04:35:57;97651.38;;;7.49;100.00
43153;BME280;28756;49.064;9.290;2023-04-01T04:38:24;97648.97;;;7.46;100.00
43153;BME280;28756;49.064;9.290;2023-04-01T04:40:50;97647.94;;;7.48;100.00
43153;BME280;28756;49.064;9.290;2023-04-01T04:43:17;97646.69;;;7.41;100.00
43153;BME280;28756;49.064;9.290;2023-04-01T04:45:43;97651.88;;;7.41;100.00
43153;BME280;28756;49.064;9.290;2023-04-01T04:48:12;97654.56;;;7.39;100.00
43153;BME280;28756;49.064;9.290;2023-04-01T04:50:48;97653.38;;;7.31;100.00
43153;BME280;28756;49.064;9.290;2023-04-01T04:53:17;97665.59;;;7.29;100.00
43153;BME280;28756;49.064;9.290;2023-04-01T04:55:45;97652.84;;;7.25;100.00
43153;BME280;28756;49.064;9.290;2023-04-01T04:58:13;97659.69;;;7.26;100.00
43153;BME280;28756;49.064;9.290;2023-04-01T05:00:38;97656.28;;;7.26;100.00
43153;BME280;28756;49.064;9.290;2023-04-01T05:03:04;97647.78;;;7.24;100.00
43153;BME280;28756;49.064;9.290;2023-04-01T05:05:30;97655.44;;;7.25;100.00
43153;BME280;28756;49.064;9.290;2023-04-01T05:07:56;97646.88;;;7.25;100.00
43153;BME280;28756;49.064;9.290;2023-04-01T05:10:21;97650.16;;;7.27;100.00
43153;BME280;28756;49.064;9.290;2023-04-01T05:12:47;97645.84;;;7.27;100.00
43153;BME280;28756;49.064;9.290;2023-04-01T05:15:13;97651.00;;;7.27;100.00
43153;BME280;28756;49.064;9.290;2023-04-01T05:17:39;97654.13;;;7.33;100.00
43153;BME280;28756;49.064;9.290;2023-04-01T05:20:06;97639.34;;;7.35;100.00
43153;BME280;28756;49.064;9.290;2023-04-01T05:22:32;97639.97;;;7.38;100.00
43153;BME280;28756;49.064;9.290;2023-04-01T05:24:58;97636.16;;;7.44;100.00
43153;BME280;28756;49.064;9.290;2023-04-01T05:27:23;97627.38;;;7.47;100.00
43153;BME280;28756;49.064;9.290;2023-04-01T05:29:49;97643.69;;;7.47;100.00
43153;BME280;28756;49.064;9.290;2023-04-01T05:32:15;97643.69;;;7.47;100.00
43153;BME280;28756;49.064;9.290;2023-04-01T05:34:41;97631.63;;;7.48;100.00
43153;BME280;28756;49.064;9.290;2023-04-01T05:37:07;97618.47;;;7.51;100.00
43153;BME280;28756;49.064;9.290;2023-04-01T05:39:38;97625.22;;;7.53;100.00
43153;BME280;28756;49.064;9.290;2023-04-01T05:42:06;97623.56;;;7.52;100.00
43153;BME280;28756;49.064;9.290;2023-04-01T05:44:32;97618.78;;;7.59;100.00
43153;BME280;28756;49.064;9.290;2023-04-01T05:46:58;97614.97;;;7.65;100.00
43153;BME280;28756;49.064;9.290;2023-04-01T05:49:23;97617.44;;;7.66;100.00
43153;BME280;28756;49.064;9.290;2023-04-01T05:51:49;97619.22;;;7.66;100.00
43153;BME280;28756;49.064;9.290;2023-04-01T05:54:15;97620.78;;;7.68;100.00
43153;BME280;28756;49.064;9.290;2023-04-01T05:56:40;97621.50;;;7.70;100.00
43153;BME280;28756;49.064;9.290;2023-04-01T05:59:06;97618.91;;;7.70;100.00
43153;BME280;28756;49.064;9.290;2023-04-01T06:01:32;97622.63;;;7.66;100.00
43153;BME280;28756;49.064;9.290;2023-04-01T06:03:57;97621.00;;;7.65;100.00
43153;BME280;28756;49.064;9.290;2023-04-01T06:06:27;97628.22;;;7.60;100.00
43153;BME280;28756;49.064;9.290;2023-04-01T06:08:53;97616.31;;;7.57;100.00
43153;BME280;28756;49.064;9.290;2023-04-01T06:15:13;97618.16;;;7.55;100.00
43153;BME280;28756;49.064;9.290;2023-04-01T06:29:22;97622.63;;;7.53;100.00
43153;BME280;28756;49.064;9.290;2023-04-01T06:35:40;97622.53;;;7.55;100.00
43153;BME280;28756;49.064;9.290;2023-04-01T06:38:34;97623.63;;;7.51;100.00
43153;BME280;28756;49.064;9.290;2023-04-01T06:44:26;97627.06;;;7.51;100.00
43153;BME280;28756;49.064;9.290;2023-04-01T06:47:18;97628.50;;;7.55;100.00
43153;BME280;28756;49.064;9.290;2023-04-01T06:49:59;97623.16;;;7.58;100.00
43153;BME280;28756;49.064;9.290;2023-04-01T06:52:46;97627.59;;;7.56;100.00
43153;BME280;28756;49.064;9.290;2023-04-01T06:57:52;97628.75;;;7.65;100.00
43153;BME280;28756;49.064;9.290;2023-04-01T07:03:16;97639.50;;;7.72;100.00
43153;BME280;28756;49.064;9.290;2023-04-01T07:05:43;97631.00;;;7.70;100.00
43153;BME280;28756;49.064;9.290;2023-04-01T07:08:15;97629.28;;;7.70;100.00
43153;BME280;28756;49.064;9.290;2023-04-01T07:13:48;97629.28;;;7.83;100.00
43153;BME280;28756;49.064;9.290;2023-04-01T07:16:37;97631.66;;;7.86;100.00
43153;BME280;28756;49.064;9.290;2023-04-01T07:19:25;97631.34;;;7.91;100.00
43153;BME280;28756;49.064;9.290;2023-04-01T07:22:05;97637.47;;;7.90;100.00
43153;BME280;28756;49.064;9.290;2023-04-01T07:24:42;97636.97;;;7.98;100.00
43153;BME280;28756;49.064;9.290;2023-04-01T07:27:11;97640.97;;;8.02;100.00
43153;BME280;28756;49.064;9.290;2023-04-01T07:29:37;97632.28;;;8.03;100.00
43153;BME280;28756;49.064;9.290;2023-04-01T07:32:21;97619.88;;;8.08;100.00
43153;BME280;28756;49.064;9.290;2023-04-01T07:47:11;97652.06;;;8.17;100.00
43153;BME280;28756;49.064;9.290;2023-04-01T07:50:35;97640.56;;;8.21;100.00
43153;BME280;28756;49.064;9.290;2023-04-01T07:53:06;97640.78;;;8.18;100.00
43153;BME280;28756;49.064;9.290;2023-04-01T07:58:54;97642.22;;;8.22;100.00
43153;BME280;28756;49.064;9.290;2023-04-01T08:04:42;97646.47;;;8.23;100.00
43153;BME280;28756;49.064;9.290;2023-04-01T08:07:23;97649.19;;;8.21;100.00
43153;BME280;28756;49.064;9.290;2023-04-01T08:10:22;97645.84;;;8.19;100.00
43153;BME280;28756;49.064;9.290;2023-04-01T08:13:26;97650.22;;;8.19;100.00
43153;BME280;28756;49.064;9.290;2023-04-01T08:16:45;97653.00;;;8.16;100.00
43153;BME280;28756;49.064;9.290;2023-04-01T08:22:30;97651.56;;;8.12;100.00
43153;BME280;28756;49.064;9.290;2023-04-01T08:25:02;97650.94;;;8.08;100.00
43153;BME280;28756;49.064;9.290;2023-04-01T08:27:57;97665.13;;;8.02;100.00
43153;BME280;28756;49.064;9.290;2023-04-01T08:30:53;97665.25;;;8.01;100.00
43153;BME280;28756;49.064;9.290;2023-04-01T08:36:22;97671.22;;;7.88;100.00
43153;BME280;28756;49.064;9.290;2023-04-01T08:38:55;97680.75;;;7.88;100.00
43153;BME280;28756;49.064;9.290;2023-04-01T08:54:44;97671.94;;;7.78;100.00
43153;BME280;28756;49.064;9.290;2023-04-01T08:57:25;97675.25;;;7.80;100.00
43153;BME280;28756;49.064;9.290;2023-04-01T09:00:22;97672.84;;;7.77;100.00
43153;BME280;28756;49.064;9.290;2023-04-01T09:03:22;97683.72;;;7.69;100.00
43153;BME280;28756;49.064;9.290;2023-04-01T09:06:34;97685.97;;;7.61;100.00
43153;BME280;28756;49.064;9.290;2023-04-01T09:09:32;97684.59;;;7.55;100.00
43153;BME280;28756;49.064;9.290;2023-04-01T09:12:17;97680.66;;;7.49;100.00
43153;BME280;28756;49.064;9.290;2023-04-01T09:27:10;97682.66;;;7.58;100.00
43153;BME280;28756;49.064;9.290;2023-04-01T09:30:19;97684.03;;;7.64;100.00
43153;BME280;28756;49.064;9.290;2023-04-01T09:33:37;97687.13;;;7.69;100.00
43153;BME280;28756;49.064;9.290;2023-04-01T09:36:46;97683.09;;;7.78;100.00
43153;BME280;28756;49.064;9.290;2023-04-01T09:39:38;97687.47;;;7.78;100.00
43153;BME280;28756;49.064;9.290;2023-04-01T09:45:23;97694.78;;;7.71;100.00
43153;BME280;28756;49.064;9.290;2023-04-01T09:48:19;97695.50;;;7.73;100.00
43153;BME280;28756;49.064;9.290;2023-04-01T09:51:23;97694.06;;;7.82;100.00
43153;BME280;28756;49.064;9.290;2023-04-01T10:03:32;97697.25;;;8.13;100.00
43153;BME280;28756;49.064;9.290;2023-04-01T10:11:50;97691.75;;;8.30;100.00
43153;BME280;28756;49.064;9.290;2023-04-01T10:20:28;97683.84;;;8.45;100.00
43153;BME280;28756;49.064;9.290;2023-04-01T10:26:52;97688.34;;;8.43;100.00
43153;BME280;28756;49.064;9.290;2023-04-01T10:35:48;97685.00;;;8.41;100.00
43153;BME280;28756;49.064;9.290;2023-04-01T10:45:18;97692.28;;;8.48;100.00
43153;BME280;28756;49.064;9.290;2023-04-01T10:57:02;97690.53;;;8.49;100.00
43153;BME280;28756;49.064;9.290;2023-04-01T11:00:01;97686.91;;;8.51;100.00
43153;BME280;28756;49.064;9.290;2023-04-01T11:28:23;97710.34;;;8.50;100.00
43153;BME280;28756;49.064;9.290;2023-04-01T11:31:17;97698.09;;;8.52;100.00
43153;BME280;28756;49.064;9.290;2023-04-01T11:48:32;97708.34;;;8.79;100.00
43153;BME280;28756;49.064;9.290;2023-04-01T11:51:16;97712.16;;;8.87;100.00
43153;BME280;28756;49.064;9.290;2023-04-01T12:03:29;97704.75;;;8.93;100.00
43153;BME280;28756;49.064;9.290;2023-04-01T12:06:45;97707.28;;;8.95;100.00
43153;BME280;28756;49.064;9.290;2023-04-01T12:09:48;97720.84;;;8.98;100.00
43153;BME280;28756;49.064;9.290;2023-04-01T12:18:33;97729.69;;;8.83;100.00
43153;BME280;28756;49.064;9.290;2023-04-01T12:21:25;97731.66;;;8.79;100.00
43153;BME280;28756;49.064;9.290;2023-04-01T12:27:05;97731.66;;;8.79;100.00
43153;BME280;28756;49.064;9.290;2023-04-01T12:33:13;97749.50;;;8.71;100.00
43153;BME280;28756;49.064;9.290;2023-04-01T12:45:00;97750.13;;;8.75;100.00
43153;BME280;28756;49.064;9.290;2023-04-01T12:56:04;97755.38;;;8.60;100.00
43153;BME280;28756;49.064;9.290;2023-04-01T13:19:08;97765.88;;;8.72;100.00
43153;BME280;28756;49.064;9.290;2023-04-01T13:22:15;97775.94;;;8.76;100.00
43153;BME280;28756;49.064;9.290;2023-04-01T13:25:39;97783.28;;;8.69;100.00
43153;BME280;28756;49.064;9.290;2023-04-01T13:28:29;97786.59;;;8.72;100.00
43153;BME280;28756;49.064;9.290;2023-04-01T13:42:59;97791.97;;;8.68;100.00
43153;BME280;28756;49.064;9.290;2023-04-01T13:54:51;97804.63;;;8.86;100.00
43153;BME280;28756;49.064;9.290;2023-04-01T13:58:04;97803.59;;;8.89;100.00
43153;BME280;28756;49.064;9.290;2023-04-01T14:00:39;97803.50;;;8.90;100.00
43153;BME280;28756;49.064;9.290;2023-04-01T14:04:34;97795.63;;;8.92;100.00
43153;BME280;28756;49.064;9.290;2023-04-01T14:10:14;97803.63;;;8.76;100.00
43153;BME280;28756;49.064;9.290;2023-04-01T14:13:07;97809.19;;;8.82;100.00
43153;BME280;28756;49.064;9.290;2023-04-01T14:16:04;97804.31;;;8.65;100.00
43153;BME280;28756;49.064;9.290;2023-04-01T14:19:02;97807.75;;;8.52;100.00
43153;BME280;28756;49.064;9.290;2023-04-01T14:33:43;97817.28;;;8.52;100.00
43153;BME280;28756;49.064;9.290;2023-04-01T14:37:13;97812.19;;;8.50;100.00
43153;BME280;28756;49.064;9.290;2023-04-01T14:48:07;97827.94;;;8.60;100.00
43153;BME280;28756;49.064;9.290;2023-04-01T14:50:49;97824.44;;;8.61;100.00
43153;BME280;28756;49.064;9.290;2023-04-01T14:56:00;97819.47;;;8.58;100.00
43153;BME280;28756;49.064;9.290;2023-04-01T14:58:47;97826.00;;;8.64;100.00
43153;BME280;28756;49.064;9.290;2023-04-01T15:01:43;97825.16;;;8.63;100.00
43153;BME280;28756;49.064;9.290;2023-04-01T15:05:13;97819.88;;;8.65;100.00
43153;BME280;28756;49.064;9.290;2023-04-01T15:08:05;97836.75;;;8.58;100.00
43153;BME280;28756;49.064;9.290;2023-04-01T15:10:53;97834.16;;;8.58;100.00
43153;BME280;28756;49.064;9.290;2023-04-01T15:25:38;97834.78;;;8.61;100.00
43153;BME280;28756;49.064;9.290;2023-04-01T15:28:20;97840.41;;;8.68;100.00
43153;BME280;28756;49.064;9.290;2023-04-01T15:31:04;97832.53;;;8.69;100.00
43153;BME280;28756;49.064;9.290;2023-04-01T15:36:56;97846.31;;;8.70;100.00
43153;BME280;28756;49.064;9.290;2023-04-01T15:39:44;97836.59;;;8.74;100.00
43153;BME280;28756;49.064;9.290;2023-04-01T15:42:30;97848.06;;;8.69;100.00
43153;BME280;28756;49.064;9.290;2023-04-01T15:45:07;97843.50;;;8.73;100.00
43153;BME280;28756;49.064;9.290;2023-04-01T15:48:13;97841.03;;;8.72;100.00
43153;BME280;28756;49.064;9.290;2023-04-01T15:54:02;97842.88;;;8.69;100.00
43153;BME280;28756;49.064;9.290;2023-04-01T15:56:53;97846.41;;;8.68;100.00
43153;BME280;28756;49.064;9.290;2023-04-01T16:06:08;97859.38;;;8.68;100.00
43153;BME280;28756;49.064;9.290;2023-04-01T16:15:15;97860.66;;;8.76;100.00
43153;BME280;28756;49.064;9.290;2023-04-01T16:20:43;97872.97;;;8.85;100.00
43153;BME280;28756;49.064;9.290;2023-04-01T16:23:43;97863.94;;;8.78;100.00
43153;BME280;28756;49.064;9.290;2023-04-01T16:26:22;97869.97;;;8.78;100.00
43153;BME280;28756;49.064;9.290;2023-04-01T16:41:17;97881.16;;;8.79;100.00
43153;BME280;28756;49.064;9.290;2023-04-01T16:43:51;97869.66;;;8.83;100.00
43153;BME280;28756;49.064;9.290;2023-04-01T16:46:56;97881.06;;;8.80;100.00
43153;BME280;28756;49.064;9.290;2023-04-01T16:49:40;97870.59;;;8.82;100.00
43153;BME280;28756;49.064;9.290;2023-04-01T16:54:55;97881.47;;;8.74;100.00
43153;BME280;28756;49.064;9.290;2023-04-01T16:57:50;97882.00;;;8.79;100.00
43153;BME280;28756;49.064;9.290;2023-04-01T17:03:32;97883.88;;;8.77;100.00
43153;BME280;28756;49.064;9.290;2023-04-01T17:09:17;97900.97;;;8.80;100.00
43153;BME280;28756;49.064;9.290;2023-04-01T17:14:59;97900.97;;;8.80;100.00
43153;BME280;28756;49.064;9.290;2023-04-01T17:20:49;97903.44;;;8.81;100.00
43153;BME280;28756;49.064;9.290;2023-04-01T17:26:37;97904.78;;;8.74;100.00
43153;BME280;28756;49.064;9.290;2023-04-01T17:29:21;97915.56;;;8.68;100.00
43153;BME280;28756;49.064;9.290;2023-04-01T17:32:25;97920.00;;;8.66;100.00
43153;BME280;28756;49.064;9.290;2023-04-01T17:40:49;97932.91;;;8.67;100.00
43153;BME280;28756;49.064;9.290;2023-04-01T17:46:42;97937.44;;;8.64;100.00
43153;BME280;28756;49.064;9.290;2023-04-01T17:58:32;97947.81;;;8.64;100.00
43153;BME280;28756;49.064;9.290;2023-04-01T18:10:40;97966.25;;;8.45;100.00
43153;BME280;28756;49.064;9.290;2023-04-01T18:16:50;97980.06;;;8.45;100.00
43153;BME280;28756;49.064;9.290;2023-04-01T18:22:19;97986.81;;;8.48;100.00
43153;BME280;28756;49.064;9.290;2023-04-01T18:25:14;97989.41;;;8.48;100.00
43153;BME280;28756;49.064;9.290;2023-04-01T18:27:47;97985.41;;;8.42;100.00
43153;BME280;28756;49.064;9.290;2023-04-01T18:30:30;97992.31;;;8.29;100.00
43153;BME280;28756;49.064;9.290;2023-04-01T18:42:42;98004.44;;;8.14;100.00
43153;BME280;28756;49.064;9.290;2023-04-01T18:45:36;97996.88;;;8.11;100.00
43153;BME280;28756;49.064;9.290;2023-04-01T18:48:56;98008.53;;;8.03;100.00
43153;BME280;28756;49.064;9.290;2023-04-01T18:51:48;98011.19;;;8.02;100.00
43153;BME280;28756;49.064;9.290;2023-04-01T18:56:49;98017.59;;;8.11;100.00
43153;BME280;28756;49.064;9.290;2023-04-01T19:00:03;98028.59;;;8.14;100.00
43153;BME280;28756;49.064;9.290;2023-04-01T19:02:59;98027.94;;;8.11;100.00
43153;BME280;28756;49.064;9.290;2023-04-01T19:05:41;98026.81;;;8.15;100.00
43153;BME280;28756;49.064;9.290;2023-04-01T19:08:32;98032.56;;;8.20;100.00
43153;BME280;28756;49.064;9.290;2023-04-01T19:11:26;98036.91;;;8.19;100.00
43153;BME280;28756;49.064;9.290;2023-04-01T19:14:00;98041.81;;;8.10;100.00
43153;BME280;28756;49.064;9.290;2023-04-01T19:17:00;98038.31;;;8.11;100.00
43153;BME280;28756;49.064;9.290;2023-04-01T19:22:58;98036.75;;;8.08;100.00
43153;BME280;28756;49.064;9.290;2023-04-01T19:25:45;98037.66;;;8.07;100.00
43153;BME280;28756;49.064;9.290;2023-04-01T19:36:58;98034.34;;;7.90;100.00
43153;BME280;28756;49.064;9.290;2023-04-01T19:49:02;98046.81;;;7.84;100.00
43153;BME280;28756;49.064;9.290;2023-04-01T19:54:48;98059.47;;;7.74;100.00
43153;BME280;28756;49.064;9.290;2023-04-01T20:00:36;98065.94;;;7.81;100.00
43153;BME280;28756;49.064;9.290;2023-04-01T20:03:53;98064.66;;;7.88;100.00
43153;BME280;28756;49.064;9.290;2023-04-01T20:25:24;98108.91;;;7.69;100.00
43153;BME280;28756;49.064;9.290;2023-04-01T20:31:08;98117.59;;;7.68;100.00
43153;BME280;28756;49.064;9.290;2023-04-01T20:37:28;98121.63;;;7.58;100.00
43153;BME280;28756;49.064;9.290;2023-04-01T20:40:36;98126.06;;;7.56;100.00
43153;BME280;28756;49.064;9.290;2023-04-01T20:46:20;98127.84;;;7.70;100.00
43153;BME280;28756;49.064;9.290;2023-04-01T20:55:53;98125.56;;;7.65;100.00
43153;BME280;28756;49.064;9.290;2023-04-01T20:58:13;98132.56;;;7.63;100.00
43153;BME280;28756;49.064;9.290;2023-04-01T21:12:17;98141.34;;;7.61;100.00
43153;BME280;28756;49.064;9.290;2023-04-01T21:15:42;98147.44;;;7.59;100.00
43153;BME280;28756;49.064;9.290;2023-04-01T21:22:25;98157.03;;;7.57;100.00
43153;BME280;28756;49.064;9.290;2023-04-01T21:25:44;98147.59;;;7.56;100.00
43153;BME280;28756;49.064;9.290;2023-04-01T22:00:48;98186.50;;;7.55;100.00
43153;BME280;28756;49.064;9.290;2023-04-01T22:13:26;98179.66;;;7.54;100.00
43153;BME280;28756;49.064;9.290;2023-04-01T22:16:23;98184.72;;;7.55;100.00
43153;BME280;28756;49.064;9.290;2023-04-01T22:19:14;98194.16;;;7.56;100.00
43153;BME280;28756;49.064;9.290;2023-04-01T22:30:31;98199.53;;;7.53;100.00
43153;BME280;28756;49.064;9.290;2023-04-01T22:33:07;98201.28;;;7.53;100.00
43153;BME280;28756;49.064;9.290;2023-04-01T22:35:44;98201.19;;;7.54;100.00
43153;BME280;28756;49.064;9.290;2023-04-01T22:41:21;98201.28;;;7.53;100.00
43153;BME280;28756;49.064;9.290;2023-04-01T22:43:55;98207.28;;;7.53;100.00
43153;BME280;28756;49.064;9.290;2023-04-01T22:46:47;98203.69;;;7.56;100.00
43153;BME280;28756;49.064;9.290;2023-04-01T22:49:57;98203.69;;;7.56;100.00
43153;BME280;28756;49.064;9.290;2023-04-01T22:58:09;98210.72;;;7.54;100.00
43153;BME280;28756;49.064;9.290;2023-04-01T23:00:56;98208.94;;;7.54;100.00
43153;BME280;28756;49.064;9.290;2023-04-01T23:03:34;98206.28;;;7.56;100.00
43153;BME280;28756;49.064;9.290;2023-04-01T23:06:04;98214.78;;;7.58;100.00